ABY227 OMSJ-LOWW
Flight info
| Callsign | ABY227 |
|---|---|
| Flight time | N/A |
| Altitude | 34000 |
| Route | RIDAP M557 TUMAK L602 GADSI M860 OTALO/N0455F360 M860 NINVA UM860 ODALI UL852 NEGEM L852 KOMAN DCT DEGET DCT BALUX DCT TORNO DCT NATEX NATEX2W |
| Aircraft | A21N/M-SDE2E3FGHIRWXY/LB1 |
Departure
| Time | 2026-04-27 08:32 |
|---|---|
| Airport | Sharjah International Airport (OMSJ) |
Arrival
| Time | N/A |
|---|---|
| Airport | Vienna International Airport (LOWW) |
| Time | Latitude | Longitude | Altitude | Speed | Heading |
|---|---|---|---|---|---|
| 2026-04-27 08:19 | 25.32186 | 55.52380 | 116 ft | 0 kts | 302° |
| 2026-04-27 08:27 | 25.32182 | 55.52387 | 118 ft | 4 kts | 306° |
| 2026-04-27 08:28 | 25.32164 | 55.52407 | 118 ft | 4 kts | 334° |
| 2026-04-27 08:28 | 25.32140 | 55.52412 | 118 ft | 4 kts | 21° |
| 2026-04-27 08:28 | 25.32132 | 55.52408 | 118 ft | 0 kts | 32° |
| 2026-04-27 08:30 | 25.32133 | 55.52409 | 118 ft | 1 kts | 32° |
| 2026-04-27 08:30 | 25.32191 | 55.52449 | 117 ft | 12 kts | 32° |
| 2026-04-27 08:30 | 25.32254 | 55.52493 | 118 ft | 17 kts | 32° |
| 2026-04-27 08:30 | 25.32367 | 55.52572 | 116 ft | 18 kts | 32° |
| 2026-04-27 08:31 | 25.32469 | 55.52643 | 120 ft | 16 kts | 32° |
| 2026-04-27 08:31 | 25.32559 | 55.52698 | 119 ft | 7 kts | 355° |
| 2026-04-27 08:31 | 25.32568 | 55.52690 | 123 ft | 0 kts | 303° |
| 2026-04-27 08:31 | 25.32623 | 55.52597 | 118 ft | 46 kts | 303° |
| 2026-04-27 08:32 | 25.32923 | 55.52075 | 116 ft | 114 kts | 302° |
| 2026-04-27 08:32 | 25.33469 | 55.51116 | 115 ft | 177 kts | 302° |
| 2026-04-27 08:32 | 25.34167 | 55.49918 | 628 ft | 186 kts | 299° |
| 2026-04-27 08:32 | 25.34844 | 55.48721 | 1320 ft | 182 kts | 298° |
| 2026-04-27 08:33 | 25.35522 | 55.47537 | 1723 ft | 186 kts | 299° |
| 2026-04-27 08:33 | 25.36255 | 55.46248 | 1829 ft | 210 kts | 300° |
| 2026-04-27 08:33 | 25.37080 | 55.44799 | 1748 ft | 239 kts | 300° |
| 2026-04-27 08:33 | 25.37984 | 55.43215 | 1808 ft | 245 kts | 300° |
| 2026-04-27 08:34 | 25.38900 | 55.41621 | 1841 ft | 246 kts | 301° |
| 2026-04-27 08:34 | 25.39815 | 55.40033 | 1828 ft | 244 kts | 301° |
| 2026-04-27 08:34 | 25.40740 | 55.38453 | 1832 ft | 244 kts | 301° |
| 2026-04-27 08:34 | 25.41664 | 55.36877 | 1829 ft | 243 kts | 301° |
| 2026-04-27 08:35 | 25.42587 | 55.35307 | 1832 ft | 243 kts | 302° |
| 2026-04-27 08:35 | 25.43504 | 55.33750 | 1832 ft | 245 kts | 301° |
| 2026-04-27 08:35 | 25.44433 | 55.32167 | 1832 ft | 245 kts | 302° |
| 2026-04-27 08:35 | 25.45364 | 55.30583 | 1844 ft | 245 kts | 301° |
| 2026-04-27 08:36 | 25.46076 | 55.28868 | 2056 ft | 248 kts | 281° |
| 2026-04-27 08:36 | 25.46228 | 55.26937 | 2512 ft | 255 kts | 271° |
| 2026-04-27 08:36 | 25.46195 | 55.24954 | 3068 ft | 258 kts | 270° |
| 2026-04-27 08:36 | 25.46159 | 55.23632 | 3438 ft | 261 kts | 270° |
| 2026-04-27 08:37 | 25.46109 | 55.21612 | 3996 ft | 263 kts | 270° |
| 2026-04-27 08:37 | 25.46045 | 55.18917 | 4733 ft | 266 kts | 270° |
| 2026-04-27 08:37 | 25.45999 | 55.16849 | 5305 ft | 269 kts | 270° |
| 2026-04-27 08:37 | 25.45969 | 55.15465 | 5709 ft | 270 kts | 271° |
| 2026-04-27 08:38 | 25.45924 | 55.13376 | 6321 ft | 272 kts | 271° |
| 2026-04-27 08:38 | 25.45879 | 55.11280 | 6869 ft | 274 kts | 271° |
| 2026-04-27 08:38 | 25.45798 | 55.09149 | 7372 ft | 280 kts | 265° |
| 2026-04-27 08:38 | 25.45261 | 55.07062 | 7910 ft | 287 kts | 245° |
| 2026-04-27 08:39 | 25.44199 | 55.05175 | 8467 ft | 290 kts | 238° |
| 2026-04-27 08:39 | 25.43011 | 55.03349 | 8978 ft | 294 kts | 237° |
| 2026-04-27 08:39 | 25.41798 | 55.01512 | 9466 ft | 297 kts | 237° |
| 2026-04-27 08:39 | 25.40592 | 54.99678 | 10030 ft | 298 kts | 237° |
| 2026-04-27 08:40 | 25.39351 | 54.97783 | 10298 ft | 310 kts | 237° |
| 2026-04-27 08:40 | 25.38060 | 54.95802 | 10523 ft | 324 kts | 237° |
| 2026-04-27 08:40 | 25.36767 | 54.93706 | 10711 ft | 336 kts | 242° |
| 2026-04-27 08:40 | 25.35853 | 54.91289 | 10885 ft | 345 kts | 258° |
| 2026-04-27 08:41 | 25.35656 | 54.88636 | 11068 ft | 352 kts | 276° |
| 2026-04-27 08:41 | 25.36169 | 54.85956 | 11240 ft | 361 kts | 287° |
| 2026-04-27 08:41 | 25.36920 | 54.83317 | 11519 ft | 367 kts | 288° |
| 2026-04-27 08:41 | 25.37720 | 54.80619 | 11918 ft | 369 kts | 288° |
| 2026-04-27 08:42 | 25.38515 | 54.77911 | 12332 ft | 370 kts | 287° |
| 2026-04-27 08:42 | 25.39305 | 54.75186 | 12757 ft | 372 kts | 287° |
| 2026-04-27 08:42 | 25.40093 | 54.72452 | 13194 ft | 373 kts | 287° |
| 2026-04-27 08:42 | 25.40879 | 54.69714 | 13615 ft | 375 kts | 287° |
| 2026-04-27 08:43 | 25.41666 | 54.66956 | 14020 ft | 376 kts | 286° |
| 2026-04-27 08:43 | 25.42446 | 54.64217 | 14404 ft | 378 kts | 286° |
| 2026-04-27 08:43 | 25.43248 | 54.61416 | 14750 ft | 381 kts | 286° |
| 2026-04-27 08:43 | 25.44063 | 54.58620 | 15119 ft | 383 kts | 287° |
| 2026-04-27 08:44 | 25.44893 | 54.55814 | 15503 ft | 384 kts | 287° |
| 2026-04-27 08:44 | 25.45720 | 54.53032 | 15862 ft | 386 kts | 287° |
| 2026-04-27 08:44 | 25.46560 | 54.50202 | 16231 ft | 388 kts | 286° |
| 2026-04-27 08:44 | 25.47402 | 54.47361 | 16592 ft | 389 kts | 286° |
| 2026-04-27 08:45 | 25.48250 | 54.44499 | 16952 ft | 390 kts | 286° |
| 2026-04-27 08:45 | 25.49098 | 54.41628 | 17264 ft | 392 kts | 286° |
| 2026-04-27 08:45 | 25.49948 | 54.38746 | 17586 ft | 393 kts | 286° |
| 2026-04-27 08:45 | 25.50799 | 54.35855 | 17877 ft | 395 kts | 285° |
| 2026-04-27 08:46 | 25.51641 | 54.32991 | 18171 ft | 396 kts | 285° |
| 2026-04-27 08:46 | 25.52496 | 54.30081 | 18422 ft | 397 kts | 285° |
| 2026-04-27 08:46 | 25.53352 | 54.27163 | 18650 ft | 399 kts | 285° |
| 2026-04-27 08:46 | 25.54217 | 54.24215 | 18910 ft | 400 kts | 285° |
| 2026-04-27 08:47 | 25.55077 | 54.21284 | 19154 ft | 401 kts | 285° |
| 2026-04-27 08:47 | 25.55944 | 54.18335 | 19363 ft | 403 kts | 285° |
| 2026-04-27 08:47 | 25.56804 | 54.15402 | 19569 ft | 405 kts | 285° |
| 2026-04-27 08:47 | 25.57676 | 54.12429 | 19795 ft | 405 kts | 285° |
| 2026-04-27 08:48 | 25.58548 | 54.09450 | 20011 ft | 406 kts | 285° |
| 2026-04-27 08:48 | 25.59417 | 54.06469 | 20193 ft | 408 kts | 285° |
| 2026-04-27 08:48 | 25.60279 | 54.03475 | 20383 ft | 409 kts | 285° |
| 2026-04-27 08:48 | 25.61134 | 54.00488 | 20606 ft | 410 kts | 285° |
| 2026-04-27 08:49 | 25.61998 | 53.97456 | 20805 ft | 412 kts | 285° |
| 2026-04-27 08:49 | 25.62859 | 53.94425 | 21009 ft | 413 kts | 285° |
| 2026-04-27 08:49 | 25.63724 | 53.91381 | 21218 ft | 415 kts | 285° |
| 2026-04-27 08:49 | 25.64592 | 53.88325 | 21447 ft | 416 kts | 285° |
| 2026-04-27 08:50 | 25.65462 | 53.85261 | 21720 ft | 417 kts | 285° |
| 2026-04-27 08:50 | 25.66333 | 53.82190 | 21957 ft | 418 kts | 285° |
| 2026-04-27 08:50 | 25.67197 | 53.79145 | 22168 ft | 421 kts | 285° |
| 2026-04-27 08:50 | 25.68082 | 53.76030 | 22409 ft | 422 kts | 285° |
| 2026-04-27 08:51 | 25.68959 | 53.72938 | 22658 ft | 424 kts | 285° |
| 2026-04-27 08:51 | 25.69843 | 53.69807 | 22879 ft | 425 kts | 284° |
| 2026-04-27 08:51 | 25.70731 | 53.66652 | 23115 ft | 427 kts | 284° |
| 2026-04-27 08:51 | 25.71618 | 53.63496 | 23351 ft | 429 kts | 284° |
| 2026-04-27 08:52 | 25.72506 | 53.60336 | 23598 ft | 430 kts | 284° |
| 2026-04-27 08:52 | 25.73397 | 53.57160 | 23826 ft | 432 kts | 284° |
| 2026-04-27 08:52 | 25.74290 | 53.53970 | 24080 ft | 434 kts | 284° |
| 2026-04-27 08:52 | 25.75177 | 53.50802 | 24314 ft | 435 kts | 284° |
| 2026-04-27 08:53 | 25.76087 | 53.47554 | 24631 ft | 436 kts | 285° |
| 2026-04-27 08:53 | 25.76981 | 53.44371 | 24923 ft | 436 kts | 285° |
| 2026-04-27 08:53 | 25.77882 | 53.41158 | 25222 ft | 436 kts | 285° |
| 2026-04-27 08:53 | 25.78784 | 53.37942 | 25508 ft | 437 kts | 285° |
| 2026-04-27 08:54 | 25.79687 | 53.34717 | 25763 ft | 438 kts | 285° |
| 2026-04-27 08:54 | 25.80588 | 53.31493 | 26029 ft | 438 kts | 285° |
| 2026-04-27 08:54 | 25.81493 | 53.28255 | 26355 ft | 437 kts | 285° |
| 2026-04-27 08:54 | 25.82389 | 53.25050 | 26774 ft | 433 kts | 285° |
| 2026-04-27 08:55 | 25.83279 | 53.21861 | 27199 ft | 430 kts | 285° |
| 2026-04-27 08:55 | 25.84234 | 53.18768 | 27570 ft | 429 kts | 289° |
| 2026-04-27 08:55 | 25.85384 | 53.15714 | 27896 ft | 427 kts | 290° |
| 2026-04-27 08:55 | 25.86570 | 53.12697 | 28242 ft | 425 kts | 291° |
| 2026-04-27 08:56 | 25.87775 | 53.09711 | 28613 ft | 422 kts | 291° |
| 2026-04-27 08:56 | 25.88990 | 53.06741 | 28986 ft | 420 kts | 291° |
| 2026-04-27 08:56 | 25.90195 | 53.03802 | 29388 ft | 416 kts | 291° |
| 2026-04-27 08:56 | 25.91390 | 53.00883 | 29728 ft | 413 kts | 291° |
| 2026-04-27 08:57 | 25.93754 | 52.95082 | 30337 ft | 410 kts | 291° |
| 2026-04-27 08:57 | 25.94911 | 52.92232 | 30599 ft | 409 kts | 291° |
| 2026-04-27 08:57 | 25.96079 | 52.89349 | 30879 ft | 408 kts | 291° |
| 2026-04-27 08:58 | 25.97240 | 52.86481 | 31168 ft | 406 kts | 291° |
| 2026-04-27 08:58 | 25.98401 | 52.83613 | 31452 ft | 405 kts | 292° |
| 2026-04-27 08:58 | 25.99552 | 52.80764 | 31708 ft | 404 kts | 292° |
| 2026-04-27 08:58 | 26.00702 | 52.77918 | 31958 ft | 402 kts | 291° |
| 2026-04-27 08:59 | 26.01851 | 52.75092 | 32316 ft | 398 kts | 292° |
| 2026-04-27 08:59 | 26.03022 | 52.72362 | 32673 ft | 394 kts | 293° |
| 2026-04-27 08:59 | 26.04237 | 52.69634 | 32904 ft | 394 kts | 294° |
| 2026-04-27 08:59 | 26.05473 | 52.66908 | 33060 ft | 394 kts | 294° |
| 2026-04-27 09:00 | 26.06709 | 52.64196 | 33220 ft | 394 kts | 294° |
| 2026-04-27 09:00 | 26.07946 | 52.61478 | 33394 ft | 393 kts | 294° |
| 2026-04-27 09:00 | 26.09181 | 52.58757 | 33576 ft | 392 kts | 294° |
| 2026-04-27 09:00 | 26.10408 | 52.56042 | 33795 ft | 390 kts | 294° |
| 2026-04-27 09:01 | 26.11626 | 52.53339 | 33873 ft | 392 kts | 294° |
| 2026-04-27 09:01 | 26.14053 | 52.47954 | 33878 ft | 391 kts | 294° |
| 2026-04-27 09:02 | 26.16491 | 52.42542 | 33878 ft | 390 kts | 294° |
| 2026-04-27 09:02 | 26.18927 | 52.37132 | 33878 ft | 390 kts | 294° |
| 2026-04-27 09:03 | 26.21352 | 52.31737 | 33878 ft | 390 kts | 294° |
| 2026-04-27 09:03 | 26.23746 | 52.26295 | 33878 ft | 390 kts | 294° |
| 2026-04-27 09:04 | 26.26100 | 52.20847 | 33878 ft | 390 kts | 293° |
| 2026-04-27 09:04 | 26.28441 | 52.15415 | 33878 ft | 390 kts | 293° |
| 2026-04-27 09:05 | 26.30797 | 52.09952 | 33878 ft | 390 kts | 293° |
| 2026-04-27 09:05 | 26.33140 | 52.04525 | 33878 ft | 390 kts | 293° |
| 2026-04-27 09:06 | 26.35502 | 51.99062 | 33878 ft | 390 kts | 293° |
| 2026-04-27 09:06 | 26.37751 | 51.93566 | 33879 ft | 389 kts | 290° |
| 2026-04-27 09:07 | 26.39690 | 51.87979 | 33878 ft | 388 kts | 289° |
| 2026-04-27 09:07 | 26.41587 | 51.82328 | 33878 ft | 388 kts | 289° |
| 2026-04-27 09:08 | 26.43470 | 51.76682 | 33878 ft | 388 kts | 289° |
| 2026-04-27 09:08 | 26.45357 | 51.71032 | 33877 ft | 387 kts | 289° |
| 2026-04-27 09:09 | 26.47233 | 51.65423 | 33878 ft | 387 kts | 289° |
| 2026-04-27 09:09 | 26.49116 | 51.59780 | 33884 ft | 388 kts | 289° |
| 2026-04-27 09:10 | 26.50995 | 51.54143 | 33885 ft | 387 kts | 289° |
| 2026-04-27 09:10 | 26.52869 | 51.48505 | 33886 ft | 387 kts | 288° |
| 2026-04-27 09:11 | 26.54731 | 51.42900 | 33886 ft | 387 kts | 288° |
| 2026-04-27 09:11 | 26.56597 | 51.37265 | 33886 ft | 386 kts | 288° |
| 2026-04-27 09:12 | 26.58458 | 51.31632 | 33885 ft | 385 kts | 288° |
| 2026-04-27 09:12 | 26.60308 | 51.26041 | 33891 ft | 386 kts | 288° |
| 2026-04-27 09:13 | 26.62170 | 51.20419 | 33886 ft | 385 kts | 288° |
| 2026-04-27 09:13 | 26.64030 | 51.14800 | 33890 ft | 385 kts | 288° |
| 2026-04-27 09:14 | 26.65878 | 51.09202 | 33885 ft | 385 kts | 288° |
| 2026-04-27 09:14 | 26.67734 | 51.03579 | 33884 ft | 384 kts | 288° |
| 2026-04-27 09:15 | 26.69565 | 50.97958 | 33885 ft | 384 kts | 287° |
| 2026-04-27 09:15 | 26.71360 | 50.92347 | 33877 ft | 385 kts | 287° |
| 2026-04-27 09:16 | 26.73167 | 50.86681 | 33860 ft | 386 kts | 287° |
| 2026-04-27 09:16 | 26.74964 | 50.81049 | 33860 ft | 387 kts | 287° |
| 2026-04-27 09:17 | 26.76774 | 50.75368 | 33860 ft | 387 kts | 287° |
| 2026-04-27 09:17 | 26.78586 | 50.69687 | 33860 ft | 386 kts | 287° |
| 2026-04-27 09:18 | 26.80936 | 50.64259 | 33860 ft | 392 kts | 299° |
| 2026-04-27 09:18 | 26.84244 | 50.59329 | 33860 ft | 396 kts | 303° |
| 2026-04-27 09:19 | 26.87719 | 50.54569 | 33860 ft | 397 kts | 303° |
| 2026-04-27 09:19 | 26.91253 | 50.49788 | 33860 ft | 397 kts | 304° |
| 2026-04-27 09:20 | 26.94955 | 50.45175 | 33860 ft | 400 kts | 307° |
| 2026-04-27 09:20 | 26.98803 | 50.40662 | 33859 ft | 400 kts | 307° |
| 2026-04-27 09:21 | 27.02634 | 50.36169 | 33860 ft | 400 kts | 307° |
| 2026-04-27 09:21 | 27.06455 | 50.31628 | 33860 ft | 399 kts | 306° |
| 2026-04-27 09:22 | 27.10239 | 50.27063 | 33861 ft | 399 kts | 306° |
| 2026-04-27 09:22 | 27.13381 | 50.23258 | 33860 ft | 399 kts | 306° |
| 2026-04-27 09:23 | 27.17442 | 50.18949 | 33861 ft | 406 kts | 313° |
| 2026-04-27 09:23 | 27.21942 | 50.15092 | 33860 ft | 409 kts | 315° |
| 2026-04-27 09:24 | 27.26542 | 50.11309 | 33860 ft | 409 kts | 315° |
| 2026-04-27 09:24 | 27.31168 | 50.07519 | 33860 ft | 410 kts | 315° |
| 2026-04-27 09:25 | 27.35739 | 50.03748 | 33859 ft | 409 kts | 314° |
| 2026-04-27 09:25 | 27.40254 | 49.99856 | 33860 ft | 408 kts | 313° |
| 2026-04-27 09:26 | 27.44718 | 49.95907 | 33859 ft | 408 kts | 313° |
| 2026-04-27 09:26 | 27.49184 | 49.91953 | 33861 ft | 408 kts | 313° |
| 2026-04-27 09:27 | 27.53660 | 49.88002 | 33870 ft | 408 kts | 313° |
| 2026-04-27 09:27 | 27.58112 | 49.84076 | 33869 ft | 408 kts | 313° |
| 2026-04-27 09:28 | 27.62586 | 49.80128 | 33868 ft | 408 kts | 313° |
| 2026-04-27 09:28 | 27.67066 | 49.76174 | 33877 ft | 408 kts | 313° |
| 2026-04-27 09:29 | 27.71512 | 49.72240 | 33878 ft | 407 kts | 313° |
| 2026-04-27 09:29 | 27.75970 | 49.68286 | 33877 ft | 407 kts | 313° |
| 2026-04-27 09:30 | 27.80389 | 49.64360 | 33878 ft | 407 kts | 313° |
| 2026-04-27 09:30 | 27.84830 | 49.60397 | 33877 ft | 407 kts | 313° |
| 2026-04-27 09:31 | 27.89254 | 49.56439 | 33878 ft | 406 kts | 313° |
| 2026-04-27 09:31 | 27.93701 | 49.52467 | 33878 ft | 406 kts | 313° |
| 2026-04-27 09:32 | 27.98128 | 49.48507 | 33878 ft | 407 kts | 313° |
| 2026-04-27 09:32 | 28.02574 | 49.44520 | 33880 ft | 407 kts | 312° |
| 2026-04-27 09:33 | 28.06991 | 49.40507 | 33890 ft | 407 kts | 312° |
| 2026-04-27 09:33 | 28.11406 | 49.36469 | 33884 ft | 408 kts | 312° |
| 2026-04-27 09:34 | 28.15802 | 49.32450 | 33870 ft | 408 kts | 312° |
| 2026-04-27 09:34 | 28.20246 | 49.28386 | 33869 ft | 409 kts | 312° |
| 2026-04-27 09:35 | 28.24652 | 49.24356 | 33869 ft | 408 kts | 312° |
| 2026-04-27 09:35 | 28.29089 | 49.20290 | 33870 ft | 410 kts | 312° |
| 2026-04-27 09:36 | 28.33526 | 49.16219 | 33869 ft | 410 kts | 312° |
| 2026-04-27 09:36 | 28.37967 | 49.12143 | 33862 ft | 410 kts | 312° |
| 2026-04-27 09:37 | 28.42608 | 49.08340 | 33860 ft | 416 kts | 316° |
| 2026-04-27 09:37 | 28.47425 | 49.04620 | 33860 ft | 417 kts | 316° |
| 2026-04-27 09:38 | 28.52222 | 49.00958 | 33859 ft | 418 kts | 316° |
| 2026-04-27 09:38 | 28.57036 | 48.97271 | 33860 ft | 417 kts | 316° |
| 2026-04-27 09:39 | 28.61853 | 48.93570 | 33860 ft | 417 kts | 316° |
| 2026-04-27 09:39 | 28.66652 | 48.89877 | 33860 ft | 418 kts | 316° |
| 2026-04-27 09:40 | 28.71487 | 48.86152 | 33860 ft | 418 kts | 316° |
| 2026-04-27 09:40 | 28.76317 | 48.82427 | 33860 ft | 419 kts | 316° |
| 2026-04-27 09:41 | 28.81149 | 48.78701 | 33860 ft | 419 kts | 316° |
| 2026-04-27 09:41 | 28.85968 | 48.75009 | 33860 ft | 419 kts | 316° |
| 2026-04-27 09:42 | 28.90821 | 48.71294 | 33861 ft | 419 kts | 316° |
| 2026-04-27 09:42 | 28.95639 | 48.67597 | 33858 ft | 419 kts | 316° |
| 2026-04-27 09:43 | 29.00476 | 48.63882 | 33860 ft | 419 kts | 316° |
| 2026-04-27 09:43 | 29.05325 | 48.60156 | 33860 ft | 420 kts | 316° |
| 2026-04-27 09:44 | 29.10175 | 48.56420 | 33860 ft | 420 kts | 316° |
| 2026-04-27 09:44 | 29.15030 | 48.52678 | 33860 ft | 421 kts | 316° |
| 2026-04-27 09:45 | 29.19861 | 48.48951 | 33860 ft | 421 kts | 316° |
| 2026-04-27 09:45 | 29.24715 | 48.45200 | 33860 ft | 421 kts | 316° |
| 2026-04-27 09:46 | 29.29582 | 48.41433 | 33860 ft | 421 kts | 316° |
| 2026-04-27 09:46 | 29.34438 | 48.37671 | 33860 ft | 421 kts | 316° |
| 2026-04-27 09:47 | 29.39261 | 48.33931 | 33851 ft | 421 kts | 317° |
| 2026-04-27 09:47 | 29.44135 | 48.30191 | 33851 ft | 423 kts | 319° |
| 2026-04-27 09:48 | 29.49246 | 48.26720 | 33851 ft | 427 kts | 321° |
| 2026-04-27 09:48 | 29.54433 | 48.23378 | 33844 ft | 428 kts | 321° |
| 2026-04-27 09:49 | 29.59594 | 48.20032 | 33841 ft | 428 kts | 321° |
| 2026-04-27 09:49 | 29.64765 | 48.16640 | 33841 ft | 428 kts | 321° |
| 2026-04-27 09:50 | 29.69929 | 48.13229 | 33841 ft | 428 kts | 321° |
| 2026-04-27 09:50 | 29.75061 | 48.09834 | 33830 ft | 428 kts | 321° |
| 2026-04-27 09:51 | 29.80224 | 48.06422 | 33833 ft | 428 kts | 321° |
| 2026-04-27 09:51 | 29.85397 | 48.02995 | 33829 ft | 427 kts | 321° |
| 2026-04-27 09:52 | 29.90562 | 47.99568 | 33822 ft | 428 kts | 321° |
| 2026-04-27 09:52 | 29.95718 | 47.96140 | 33822 ft | 427 kts | 321° |
| 2026-04-27 09:53 | 30.00762 | 47.92635 | 33823 ft | 420 kts | 315° |